Time;durP1;ratioP1;P1;durP2;ratioP2;P2;SDS_P1;SDS_P2;PMS_P1;PMS_P2;Temp;Humidity;BMP_temperature;BMP_pressure;BME280_temperature;BME280_humidity;BME280_pressure;Samples;Min_cycle;Max_cycle;Signal;HPM_P1;HPM_P2
2024/03/21 00:00:20;;;;;;;53.10;32.50;;;;;;;7.18;55.43;101313.01;106692;1298;22604;-63
2024/03/21 00:02:50;;;;;;;51.50;31.30;;;;;;;7.19;55.68;101308.90;106745;1316;22522;-62
2024/03/21 00:05:17;;;;;;;49.90;31.20;;;;;;;7.19;55.88;101307.88;106659;1310;22877;-62
2024/03/21 00:07:47;;;;;;;;;;;;;;;7.19;56.27;101309.24;106770;1317;22605;-62
2024/03/21 00:10:14;;;;;;;54.80;32.10;;;;;;;7.19;56.03;101304.63;106609;1299;25960;-62
2024/03/21 00:12:40;;;;;;;53.80;30.60;;;;;;;7.20;56.48;101303.60;103145;1317;22700;-64
2024/03/21 00:15:06;;;;;;;49.80;29.80;;;;;;;7.21;56.22;101308.08;103285;1317;24423;-63
2024/03/21 00:17:33;;;;;;;46.20;29.70;;;;;;;7.23;55.74;101307.91;103262;1317;23388;-64
2024/03/21 00:19:58;;;;;;;50.20;31.00;;;;;;;7.24;55.59;101308.10;103263;1298;22571;-65
2024/03/21 00:22:24;;;;;;;54.00;30.90;;;;;;;7.25;55.75;101307.25;103223;1316;22823;-64
2024/03/21 00:24:49;;;;;;;49.70;31.40;;;;;;;7.24;55.87;101301.75;103280;1315;25596;-65
2024/03/21 00:27:14;;;;;;;48.60;30.30;;;;;;;7.22;56.00;101298.82;103148;1310;22730;-64
2024/03/21 00:29:40;;;;;;;52.80;31.70;;;;;;;7.22;56.09;101300.87;103097;1307;24354;-64
2024/03/21 00:32:06;;;;;;;51.20;30.10;;;;;;;7.19;56.34;101295.71;103125;1316;24768;-64
2024/03/21 00:34:31;;;;;;;62.10;31.40;;;;;;;7.18;57.05;101293.29;103509;1317;22658;-64
2024/03/21 00:36:57;;;;;;;55.90;30.10;;;;;;;7.19;56.80;101290.21;103180;1311;24262;-64
2024/03/21 00:39:23;;;;;;;57.30;32.30;;;;;;;7.22;57.09;101289.38;103115;1310;22636;-64
2024/03/21 00:41:49;;;;;;;64.30;32.80;;;;;;;7.25;57.42;101289.58;103118;1303;22673;-64
2024/03/21 00:44:15;;;;;;;61.60;33.50;;;;;;;7.30;57.03;101289.09;103137;1317;23305;-64
2024/03/21 00:46:40;;;;;;;63.40;33.30;;;;;;;7.34;56.54;101287.56;103228;1310;22592;-64
2024/03/21 00:49:07;;;;;;;63.00;33.70;;;;;;;7.35;57.19;101284.48;103165;1294;22577;-64
2024/03/21 00:51:32;;;;;;;55.50;31.60;;;;;;;7.34;57.10;101290.48;103124;1315;25364;-64
2024/03/21 00:53:58;;;;;;;62.80;31.80;;;;;;;7.31;56.65;101285.14;103077;1311;22580;-64
2024/03/21 00:56:24;;;;;;;70.60;34.80;;;;;;;7.33;57.09;101284.46;103076;1306;23044;-64
2024/03/21 00:58:49;;;;;;;69.60;34.90;;;;;;;7.35;56.80;101281.73;103071;1318;25421;-64
2024/03/21 01:01:15;;;;;;;64.50;35.60;;;;;;;7.38;56.89;101278.50;103005;1298;22757;-63
2024/03/21 01:03:41;;;;;;;62.70;33.30;;;;;;;7.39;56.99;101277.31;103154;1317;24252;-64
2024/03/21 01:06:07;;;;;;;70.50;36.00;;;;;;;7.38;57.14;101274.91;103110;1317;25553;-64
2024/03/21 01:08:32;;;;;;;64.30;37.00;;;;;;;7.37;57.34;101275.92;102966;1318;24087;-64
2024/03/21 01:10:58;;;;;;;70.00;37.50;;;;;;;7.35;56.75;101270.42;103069;1300;22624;-64
2024/03/21 01:13:23;;;;;;;69.00;36.80;;;;;;;7.34;57.58;101271.96;103158;1310;22836;-63
2024/03/21 01:15:49;;;;;;;61.70;35.50;;;;;;;7.31;57.18;101266.27;103197;1315;23797;-63
2024/03/21 01:18:14;;;;;;;65.20;36.90;;;;;;;7.29;57.43;101259.23;103252;1317;22582;-63
2024/03/21 01:20:41;;;;;;;76.30;38.60;;;;;;;7.25;57.16;101254.09;103302;1294;25639;-61
2024/03/21 01:23:10;;;;;;;60.80;34.80;;;;;;;7.22;57.66;101250.47;103401;1310;22703;-62
2024/03/21 01:25:37;;;;;;;64.70;37.20;;;;;;;7.17;57.95;101242.70;103251;1310;24503;-62
2024/03/21 01:28:02;;;;;;;;;;;;;;;7.14;57.64;101247.65;103216;1313;22567;-61
2024/03/21 01:30:36;;;;;;;62.50;35.00;;;;;;;7.12;57.54;101246.43;103371;1299;22567;-62
2024/03/21 01:33:03;;;;;;;65.00;35.90;;;;;;;7.13;57.54;101242.84;103242;1317;22559;-62
2024/03/21 01:35:29;;;;;;;67.30;35.50;;;;;;;7.11;57.72;101238.19;103355;1317;22563;-61
2024/03/21 01:37:55;;;;;;;66.20;35.50;;;;;;;7.10;57.66;101231.67;103374;1317;22566;-62
2024/03/21 01:40:21;;;;;;;70.00;34.90;;;;;;;7.09;57.75;101232.86;103567;1294;24338;-67
2024/03/21 01:42:49;;;;;;;61.90;35.70;;;;;;;7.09;57.25;101230.98;103348;1317;22567;-63
2024/03/21 01:45:16;;;;;;;63.10;34.10;;;;;;;7.08;57.55;101226.52;103497;1315;22586;-62
2024/03/21 01:47:42;;;;;;;60.30;34.60;;;;;;;7.08;57.49;101225.66;103659;1300;24425;-62
2024/03/21 01:50:08;;;;;;;68.60;35.90;;;;;;;7.08;57.37;101222.92;103342;1311;24261;-62
2024/03/21 01:52:35;;;;;;;61.40;33.30;;;;;;;7.08;57.37;101221.89;103308;1300;22567;-62
2024/03/21 01:55:01;;;;;;;59.80;36.20;;;;;;;7.08;57.21;101221.54;103259;1317;24306;-62
2024/03/21 01:57:27;;;;;;;58.50;33.90;;;;;;;7.07;57.22;101220.16;103326;1317;24245;-62
2024/03/21 01:59:56;;;;;;;61.30;33.50;;;;;;;7.07;57.14;101217.59;103259;1317;23954;-62
2024/03/21 02:02:23;;;;;;;59.50;33.70;;;;;;;7.04;57.57;101220.14;103176;1299;22568;-63
2024/03/21 02:04:49;;;;;;;61.20;34.00;;;;;;;6.98;57.13;101222.14;103440;1317;22569;-62
2024/03/21 02:07:16;;;;;;;65.50;33.20;;;;;;;6.96;57.23;101219.22;103363;1316;25455;-62
2024/03/21 02:09:41;;;;;;;57.30;34.20;;;;;;;6.96;57.35;101220.59;103121;1317;23448;-61
2024/03/21 02:12:08;;;;;;;52.10;32.20;;;;;;;6.98;57.18;101219.23;103314;1310;24319;-63
2024/03/21 02:14:36;;;;;;;52.50;30.60;;;;;;;7.00;57.06;101220.61;103159;1317;26725;-62
2024/03/21 02:17:02;;;;;;;54.20;32.20;;;;;;;7.01;57.45;101216.68;103317;1310;24284;-61
2024/03/21 02:19:28;;;;;;;58.80;31.50;;;;;;;7.01;57.70;101218.39;103403;1317;23610;-62
2024/03/21 02:24:38;;;;;;;60.90;32.80;;;;;;;7.02;57.80;101222.35;103258;1310;22581;-62
2024/03/21 02:27:04;;;;;;;58.70;32.80;;;;;;;6.98;57.36;101221.97;103218;1316;25573;-62
2024/03/21 02:29:30;;;;;;;54.70;32.60;;;;;;;6.97;58.02;101218.20;103242;1310;22585;-64
2024/03/21 02:31:55;;;;;;;63.80;32.30;;;;;;;6.98;57.77;101215.12;103178;1299;22695;-63
2024/03/21 02:34:21;;;;;;;54.50;31.80;;;;;;;7.01;57.49;101217.02;103141;1317;22586;-61
2024/03/21 02:36:46;;;;;;;54.30;31.30;;;;;;;7.03;57.27;101213.95;103318;1317;22583;-64
2024/03/21 02:39:11;;;;;;;57.30;32.80;;;;;;;7.05;57.32;101213.98;103114;1317;22597;-63
2024/03/21 02:41:37;;;;;;;55.10;30.50;;;;;;;7.05;57.29;101219.80;103145;1317;23964;-62
2024/03/21 02:44:02;;;;;;;52.90;30.90;;;;;;;7.06;57.68;101218.77;103345;1316;22557;-61
2024/03/21 02:46:28;;;;;;;55.60;30.00;;;;;;;7.04;57.60;101216.02;103249;1316;22570;-62
2024/03/21 02:48:53;;;;;;;57.40;33.20;;;;;;;7.05;57.80;101215.17;103050;1317;25133;-62
2024/03/21 02:51:22;;;;;;;53.30;31.30;;;;;;;7.06;57.72;101214.83;102986;1315;24220;-63
2024/03/21 02:53:47;;;;;;;52.80;31.10;;;;;;;7.04;57.56;101215.34;103281;1297;22571;-62
2024/03/21 02:56:12;;;;;;;54.40;31.20;;;;;;;7.04;57.95;101212.77;103228;1310;22700;-62
2024/03/21 02:58:38;;;;;;;53.80;31.30;;;;;;;7.03;57.86;101212.41;103261;1317;22690;-62
2024/03/21 03:01:03;;;;;;;52.30;31.90;;;;;;;7.02;57.93;101212.23;103277;1309;25829;-62
2024/03/21 03:03:28;;;;;;;57.00;31.90;;;;;;;7.01;57.96;101213.42;103087;1300;25541;-62
2024/03/21 03:05:54;;;;;;;51.10;30.40;;;;;;;7.01;57.94;101211.20;103293;1318;25458;-63
2024/03/21 03:08:19;;;;;;;59.40;31.60;;;;;;;7.01;57.95;101210.16;103319;1294;22565;-61
2024/03/21 03:10:44;;;;;;;59.80;32.70;;;;;;;7.00;58.01;101213.24;103251;1313;25627;-62
2024/03/21 03:13:09;;;;;;;52.60;32.10;;;;;;;7.01;58.07;101208.10;103131;1317;23457;-62
2024/03/21 03:15:35;;;;;;;54.50;32.00;;;;;;;7.00;58.08;101209.47;103196;1317;25399;-62
2024/03/21 03:18:00;;;;;;;59.30;32.70;;;;;;;6.98;58.13;101204.31;103170;1317;26655;-62
2024/03/21 03:20:26;;;;;;;54.00;32.00;;;;;;;6.97;58.04;101203.63;103041;1306;22893;-62
2024/03/21 03:22:52;;;;;;;54.60;31.40;;;;;;;6.97;58.06;101201.39;103180;1301;22574;-62
2024/03/21 03:25:18;;;;;;;52.80;32.20;;;;;;;6.95;58.12;101200.35;103219;1317;23224;-62
2024/03/21 03:27:43;;;;;;;61.30;32.70;;;;;;;6.96;58.23;101200.01;103180;1317;22824;-62
2024/03/21 03:30:09;;;;;;;62.40;32.10;;;;;;;6.94;58.12;101199.31;103161;1315;26668;-63
2024/03/21 03:32:47;;;;;;;55.80;33.20;;;;;;;6.93;58.20;101194.67;102949;1294;22680;-62
2024/03/21 03:37:56;;;;;;;53.90;32.90;;;;;;;6.90;58.49;101190.37;103137;1300;22682;-63
2024/03/21 03:40:22;;;;;;;55.50;33.30;;;;;;;6.86;58.19;101187.59;103156;1313;25283;-64
2024/03/21 03:42:47;;;;;;;59.50;34.20;;;;;;;6.80;58.33;101183.42;103081;1294;22652;-64
2024/03/21 03:45:13;;;;;;;67.70;37.70;;;;;;;6.77;59.75;101187.52;103299;1310;22695;-63
2024/03/21 03:47:38;;;;;;;64.40;36.50;;;;;;;6.74;58.94;101184.77;103067;1310;22596;-63
2024/03/21 03:50:04;;;;;;;68.50;37.20;;;;;;;6.72;59.22;101182.02;103079;1317;22568;-64
2024/03/21 03:52:29;;;;;;;70.00;36.70;;;;;;;6.70;58.96;101183.02;103175;1316;22553;-64
2024/03/21 03:54:55;;;;;;;71.10;38.90;;;;;;;6.69;58.97;101182.16;103038;1311;25532;-64
2024/03/21 03:57:20;;;;;;;68.40;37.60;;;;;;;6.68;59.26;101181.80;103055;1313;24259;-63
2024/03/21 03:59:46;;;;;;;68.40;38.60;;;;;;;6.66;59.56;101178.88;103226;1297;22570;-64
2024/03/21 04:02:11;;;;;;;65.70;37.70;;;;;;;6.64;59.21;101180.92;103150;1316;24277;-63
2024/03/21 04:04:37;;;;;;;71.90;39.20;;;;;;;6.64;58.96;101176.12;103003;1300;22776;-63
2024/03/21 04:07:02;;;;;;;67.60;39.50;;;;;;;6.63;59.15;101176.63;103020;1310;24406;-64
2024/03/21 04:09:28;;;;;;;64.40;38.60;;;;;;;6.63;59.02;101170.80;103201;1317;22825;-64
2024/03/21 04:11:53;;;;;;;66.00;40.30;;;;;;;6.63;58.93;101172.86;103158;1310;22752;-64
2024/03/21 04:14:19;;;;;;;70.10;40.70;;;;;;;6.63;58.86;101175.77;102981;1300;25584;-64
2024/03/21 04:16:44;;;;;;;70.80;41.20;;;;;;;6.62;59.07;101172.68;103115;1318;22887;-64
2024/03/21 04:19:10;;;;;;;71.00;39.40;;;;;;;6.63;59.30;101168.92;103236;1318;22568;-63
2024/03/21 04:21:35;;;;;;;75.00;41.60;;;;;;;6.63;59.30;101170.29;103133;1311;25421;-63
2024/03/21 04:24:00;;;;;;;71.00;40.20;;;;;;;6.62;59.15;101177.30;103081;1300;24257;-64
2024/03/21 04:26:26;;;;;;;69.10;40.00;;;;;;;6.61;59.14;101173.70;103091;1317;24313;-63
2024/03/21 04:28:51;;;;;;;71.30;39.10;;;;;;;6.60;59.42;101173.69;103090;1307;24162;-64
2024/03/21 04:31:16;;;;;;;74.70;41.00;;;;;;;6.60;59.34;101173.35;103160;1317;22855;-63
2024/03/21 04:33:41;;;;;;;64.50;37.70;;;;;;;6.60;59.34;101166.83;103227;1295;22570;-64
2024/03/21 04:36:07;;;;;;;68.40;38.30;;;;;;;6.59;59.21;101172.83;103092;1310;22579;-63
2024/03/21 04:38:33;;;;;;;70.70;38.30;;;;;;;6.59;59.23;101172.13;103333;1318;22716;-63
2024/03/21 04:40:58;;;;;;;64.90;36.80;;;;;;;6.59;59.24;101175.73;103170;1307;24406;-64
2024/03/21 04:43:23;;;;;;;66.20;37.30;;;;;;;6.58;59.24;101174.52;103175;1317;22570;-64
2024/03/21 04:45:49;;;;;;;61.40;38.40;;;;;;;6.59;59.33;101171.11;103047;1300;22567;-65
2024/03/21 04:48:14;;;;;;;62.00;37.60;;;;;;;6.61;59.51;101172.84;102998;1317;25278;-63
2024/03/21 04:50:39;;;;;;;62.70;37.60;;;;;;;6.63;59.55;101169.77;103393;1316;22596;-64
2024/03/21 04:53:05;;;;;;;69.40;37.60;;;;;;;6.64;59.51;101169.09;106691;1316;22830;-62
2024/03/21 04:55:30;;;;;;;61.20;37.20;;;;;;;6.64;59.71;101164.13;106643;1299;24019;-62
2024/03/21 04:57:55;;;;;;;63.10;37.60;;;;;;;6.66;59.89;101165.85;106634;1310;23028;-62
2024/03/21 05:00:21;;;;;;;63.90;38.40;;;;;;;6.67;59.66;101165.70;106713;1310;23542;-62
2024/03/21 05:02:46;;;;;;;71.00;38.00;;;;;;;6.69;59.52;101165.20;106705;1317;22822;-63
2024/03/21 05:05:11;;;;;;;67.60;38.30;;;;;;;6.72;59.67;101165.57;106667;1299;22253;-63
2024/03/21 05:07:37;;;;;;;65.90;36.60;;;;;;;6.75;59.75;101163.02;106667;1317;23181;-62
2024/03/21 05:10:03;;;;;;;70.40;39.10;;;;;;;6.79;60.56;101163.37;106673;1317;22711;-62
2024/03/21 05:12:29;;;;;;;67.40;37.90;;;;;;;6.80;60.27;101160.13;106491;1313;23439;-62
2024/03/21 05:14:54;;;;;;;68.90;38.90;;;;;;;6.81;60.44;101159.27;106672;1299;22625;-62
2024/03/21 05:17:20;;;;;;;69.10;38.50;;;;;;;6.83;60.55;101160.66;106786;1317;22502;-62
2024/03/21 05:19:47;;;;;;;69.50;38.00;;;;;;;6.84;60.67;101158.27;106707;1317;22857;-62
2024/03/21 05:25:08;;;;;;;65.00;37.70;;;;;;;6.88;60.67;101159.84;105888;1295;22639;-88
2024/03/21 05:40:31;;;;;;;67.00;39.40;;;;;;;6.99;60.68;101159.41;105623;1312;82109;-82
2024/03/21 05:45:44;;;;;;;70.50;40.80;;;;;;;7.03;60.76;101155.16;105360;1313;22638;-83
2024/03/21 05:48:12;;;;;;;68.80;39.60;;;;;;;7.06;60.53;101155.52;105176;1307;22528;-83
2024/03/21 05:51:08;;;;;;;70.50;40.80;;;;;;;7.09;60.63;101155.38;105261;1314;26547;-83
2024/03/21 05:53:49;;;;;;;68.50;39.50;;;;;;;7.14;60.58;101156.45;105337;1313;22777;-83
2024/03/21 05:56:26;;;;;;;71.00;40.70;;;;;;;7.17;60.60;101158.00;105682;1315;77876;-61
2024/03/21 05:58:52;;;;;;;70.20;40.20;;;;;;;7.20;60.52;101152.02;106321;1300;22695;-61
2024/03/21 06:03:44;;;;;;;70.60;40.60;;;;;;;7.25;60.59;101152.91;102913;1296;23138;-62
2024/03/21 06:06:10;;;;;;;72.70;41.60;;;;;;;7.27;60.54;101150.67;103155;1313;24456;-64
2024/03/21 06:08:35;;;;;;;70.30;41.20;;;;;;;7.28;61.23;101152.39;103046;1300;23441;-63
2024/03/21 06:11:01;;;;;;;67.10;40.10;;;;;;;7.28;60.77;101152.23;102970;1300;22586;-60
2024/03/21 06:13:27;;;;;;;73.10;40.60;;;;;;;7.33;60.93;101153.10;102870;1319;22581;-63
2024/03/21 06:15:53;;;;;;;70.80;40.00;;;;;;;7.36;60.79;101154.66;102863;1319;24333;-62
2024/03/21 06:18:18;;;;;;;72.20;40.60;;;;;;;7.37;61.03;101158.61;102673;1301;25328;-61
2024/03/21 06:20:44;;;;;;;74.30;41.30;;;;;;;7.39;60.91;101158.45;102934;1297;22570;-62
2024/03/21 06:23:10;;;;;;;72.60;40.30;;;;;;;7.43;60.80;101160.02;102773;1319;22583;-62
2024/03/21 06:25:36;;;;;;;73.40;41.60;;;;;;;7.45;60.89;101158.84;102913;1316;24502;-61
2024/03/21 06:28:02;;;;;;;69.60;40.60;;;;;;;7.50;61.02;101159.73;102816;1319;22647;-62
2024/03/21 06:30:27;;;;;;;72.70;42.50;;;;;;;7.54;61.13;101156.65;102924;1311;22594;-62
2024/03/21 06:32:53;;;;;;;72.80;39.30;;;;;;;7.58;61.08;101156.50;102904;1313;22590;-61
2024/03/21 06:35:20;;;;;;;69.90;41.30;;;;;;;7.62;61.01;101155.14;102808;1316;22693;-62
2024/03/21 06:37:50;;;;;;;70.80;40.20;;;;;;;7.65;61.26;101158.77;103070;1319;22717;-62
2024/03/21 06:40:16;;;;;;;71.30;39.80;;;;;;;7.62;61.30;101163.39;102835;1303;24110;-63
2024/03/21 06:42:41;;;;;;;70.40;41.10;;;;;;;7.61;61.09;101164.23;102860;1319;22639;-62
2024/03/21 06:45:07;;;;;;;73.70;41.80;;;;;;;7.61;61.08;101166.64;102974;1319;22582;-62
2024/03/21 06:47:33;;;;;;;76.70;40.60;;;;;;;7.61;61.39;101171.45;102807;1319;25022;-61
2024/03/21 06:49:58;;;;;;;66.20;38.50;;;;;;;7.58;61.07;101175.38;102948;1313;22584;-62
2024/03/21 06:52:23;;;;;;;77.50;41.30;;;;;;;7.60;61.17;101176.92;102970;1319;26201;-63
2024/03/21 06:54:49;;;;;;;73.30;40.70;;;;;;;7.61;61.36;101182.08;102973;1297;23231;-62
2024/03/21 06:57:14;;;;;;;71.70;41.10;;;;;;;7.61;61.32;101178.81;102967;1317;22709;-61
2024/03/21 06:59:40;;;;;;;75.80;41.90;;;;;;;7.63;61.06;101179.01;102854;1319;22570;-61
2024/03/21 07:02:06;;;;;;;72.00;41.60;;;;;;;7.65;61.16;101177.13;102980;1306;22625;-62
2024/03/21 07:04:32;;;;;;;71.30;40.90;;;;;;;7.64;61.76;101174.38;102883;1319;22593;-62
2024/03/21 07:06:57;;;;;;;75.50;41.10;;;;;;;7.63;61.42;101178.83;102897;1319;22827;-61
2024/03/21 07:09:23;;;;;;;74.80;43.40;;;;;;;7.62;61.53;101173.34;102799;1303;22647;-62
2024/03/21 07:11:49;;;;;;;81.10;42.70;;;;;;;7.62;61.57;101171.11;102917;1306;23066;-62
2024/03/21 07:14:15;;;;;;;68.90;40.50;;;;;;;7.64;61.63;101172.14;103048;1312;22589;-62
2024/03/21 07:16:40;;;;;;;71.30;40.90;;;;;;;7.70;61.88;101174.91;102744;1315;22571;-63
2024/03/21 07:19:06;;;;;;;71.90;41.10;;;;;;;7.77;61.51;101173.23;102474;1319;235555;-62
2024/03/21 07:21:31;;;;;;;65.70;39.70;;;;;;;7.85;61.62;101174.79;102829;1303;25660;-62
2024/03/21 07:23:57;;;;;;;75.40;42.60;;;;;;;7.96;61.61;101177.75;102771;1313;23196;-62
2024/03/21 07:26:22;;;;;;;77.30;41.10;;;;;;;8.06;62.02;101172.13;102901;1319;23971;-62
2024/03/21 07:28:47;;;;;;;77.70;42.20;;;;;;;8.14;61.81;101170.26;102865;1319;22696;-61
2024/03/21 07:31:12;;;;;;;76.00;42.20;;;;;;;8.26;61.84;101167.20;102936;1300;22561;-62
2024/03/21 07:33:38;;;;;;;76.90;42.70;;;;;;;8.41;62.01;101161.22;102928;1319;24569;-62
2024/03/21 07:36:04;;;;;;;76.10;44.00;;;;;;;8.56;62.02;101161.41;103009;1312;22573;-63
2024/03/21 07:38:29;;;;;;;70.10;38.10;;;;;;;8.69;61.83;101162.46;103075;1313;25316;-63
2024/03/21 07:40:58;;;;;;;72.00;43.50;;;;;;;8.74;62.34;101163.66;102906;1300;22587;-62
2024/03/21 07:43:24;;;;;;;74.10;42.40;;;;;;;8.81;62.17;101168.98;103017;1319;24291;-62
2024/03/21 07:45:50;;;;;;;72.00;42.80;;;;;;;8.91;61.82;101172.23;102967;1319;23398;-63
2024/03/21 07:48:15;;;;;;;68.00;41.00;;;;;;;8.94;61.74;101170.34;102963;1316;24495;-63
2024/03/21 07:50:41;;;;;;;73.00;41.70;;;;;;;8.92;61.33;101171.04;102935;1319;26577;-62
2024/03/21 07:53:06;;;;;;;67.90;42.60;;;;;;;8.97;61.36;101172.40;102923;1319;23430;-62
2024/03/21 07:55:32;;;;;;;71.00;41.20;;;;;;;8.99;61.38;101173.61;102880;1319;22584;-62
2024/03/21 07:58:00;;;;;;;73.00;41.60;;;;;;;9.05;61.38;101171.71;102786;1315;22570;-62
2024/03/21 08:00:26;;;;;;;71.90;40.50;;;;;;;9.11;61.26;101171.88;103656;1317;25539;-62
2024/03/21 08:02:52;;;;;;;72.60;40.80;;;;;;;9.12;61.13;101173.25;102969;1316;22581;-62
2024/03/21 08:05:17;;;;;;;68.70;41.50;;;;;;;9.12;61.26;101174.45;102959;1319;24418;-62
2024/03/21 08:07:42;;;;;;;69.50;39.80;;;;;;;9.14;61.35;101177.20;102896;1313;23837;-63
2024/03/21 08:10:08;;;;;;;77.50;41.10;;;;;;;9.14;61.27;101177.04;102945;1298;22854;-62
2024/03/21 08:12:34;;;;;;;69.50;40.30;;;;;;;9.14;61.33;101175.48;102983;1319;24306;-62
2024/03/21 08:14:59;;;;;;;80.10;41.60;;;;;;;9.14;61.34;101177.02;102885;1312;24453;-63
2024/03/21 08:17:24;;;;;;;60.10;36.30;;;;;;;9.18;61.55;101176.00;102735;1316;22710;-61
2024/03/21 08:19:53;;;;;;;70.80;39.60;;;;;;;9.25;61.65;101177.20;102977;1319;23961;-62
2024/03/21 08:22:19;;;;;;;69.10;40.70;;;;;;;9.30;61.50;101179.59;105449;1300;22766;-62
2024/03/21 08:24:44;;;;;;;67.80;40.30;;;;;;;9.32;61.46;101180.28;105716;1304;22661;-61
2024/03/21 08:27:10;;;;;;;67.60;39.30;;;;;;;9.36;61.75;101181.46;105532;1318;23053;-61
2024/03/21 08:29:35;;;;;;;66.30;38.90;;;;;;;9.34;61.68;101181.13;105710;1319;25463;-61
2024/03/21 08:32:00;;;;;;;64.20;38.40;;;;;;;9.34;62.06;101180.11;105691;1300;22811;-61
2024/03/21 08:34:25;;;;;;;64.30;38.70;;;;;;;9.39;62.35;101183.85;105695;1319;22933;-62
2024/03/21 08:36:51;;;;;;;70.10;40.80;;;;;;;9.45;61.96;101180.73;105423;1319;22692;-61
2024/03/21 08:39:16;;;;;;;63.40;37.90;;;;;;;9.55;62.37;101184.67;105573;1319;22657;-61
2024/03/21 08:41:41;;;;;;;67.30;38.60;;;;;;;9.66;62.26;101183.96;105820;1300;22563;-62
2024/03/21 08:44:07;;;;;;;70.10;38.80;;;;;;;9.74;62.41;101185.83;105781;1319;22636;-61
2024/03/21 08:46:32;;;;;;;63.30;38.20;;;;;;;9.79;62.31;101188.05;105863;1319;22597;-61
2024/03/21 08:48:58;;;;;;;66.00;39.20;;;;;;;9.80;62.20;101185.46;105787;1319;22606;-62
2024/03/21 08:51:23;;;;;;;66.60;39.00;;;;;;;9.87;62.71;101183.86;105747;1299;22616;-61
2024/03/21 08:53:48;;;;;;;60.00;37.30;;;;;;;10.00;62.43;101183.63;105800;1319;24821;-61
2024/03/21 08:56:14;;;;;;;64.90;37.50;;;;;;;10.13;62.32;101182.20;105692;1319;22597;-62
2024/03/21 08:58:39;;;;;;;70.10;36.30;;;;;;;10.19;62.18;101182.19;105745;1319;22627;-61
2024/03/21 09:01:04;;;;;;;65.00;37.50;;;;;;;10.28;62.16;101180.42;105813;1299;24060;-61
2024/03/21 09:03:31;;;;;;;62.00;36.60;;;;;;;10.28;62.44;101180.95;105970;1300;22591;-61
2024/03/21 09:05:58;;;;;;;58.90;36.10;;;;;;;10.37;62.55;101183.30;105861;1319;22531;-61
2024/03/21 09:08:23;;;;;;;61.00;36.30;;;;;;;10.45;62.48;101182.70;105780;1314;22603;-62
2024/03/21 09:10:49;;;;;;;60.50;36.90;;;;;;;10.49;62.06;101181.64;105987;1319;25487;-61
2024/03/21 09:13:14;;;;;;;69.90;36.50;;;;;;;10.50;62.35;101182.15;105885;1300;22995;-61
2024/03/21 09:15:40;;;;;;;58.70;37.30;;;;;;;10.61;62.38;101182.43;105735;1313;25459;-62
2024/03/21 09:18:05;;;;;;;57.20;34.50;;;;;;;10.64;62.79;101183.79;106020;1319;22727;-61
2024/03/21 09:20:32;;;;;;;63.20;35.90;;;;;;;10.66;62.63;101179.46;105770;1314;22666;-61
2024/03/21 09:22:57;;;;;;;59.60;35.40;;;;;;;10.72;62.76;101184.59;106050;1300;22888;-62
2024/03/21 09:25:23;;;;;;;57.40;35.40;;;;;;;10.74;62.98;101183.37;105770;1319;23825;-61
2024/03/21 09:27:48;;;;;;;59.20;34.50;;;;;;;10.81;63.16;101189.19;106045;1316;22692;-61
2024/03/21 09:30:13;;;;;;;60.60;35.90;;;;;;;10.83;63.20;101189.34;105967;1313;22816;-61
2024/03/21 09:32:39;;;;;;;61.10;35.60;;;;;;;10.83;63.09;101187.96;105854;1318;22678;-61
2024/03/21 09:35:06;;;;;;;62.30;35.90;;;;;;;10.89;63.53;101185.67;105781;1317;23077;-62
2024/03/21 09:37:32;;;;;;;58.70;36.40;;;;;;;10.93;63.66;101185.27;105931;1313;23975;-62
2024/03/21 09:39:59;;;;;;;65.10;38.80;;;;;;;10.97;63.80;101184.36;105920;1318;22796;-61
2024/03/21 09:42:26;;;;;;;54.10;33.70;;;;;;;11.02;64.38;101177.94;105834;1300;22604;-61
2024/03/21 09:44:53;;;;;;;58.30;35.90;;;;;;;11.08;63.83;101182.55;106009;1319;22618;-61
2024/03/21 09:47:20;;;;;;;62.30;36.10;;;;;;;11.07;64.02;101178.76;106040;1308;22656;-61
2024/03/21 09:49:48;;;;;;;59.90;36.90;;;;;;;11.01;64.35;101181.23;106043;1319;22665;-61
2024/03/21 09:52:14;;;;;;;62.60;36.40;;;;;;;10.90;63.82;101177.89;106145;1297;22597;-62
2024/03/21 09:54:40;;;;;;;55.40;34.70;;;;;;;10.89;63.80;101178.77;106029;1313;22750;-61
2024/03/21 09:57:11;;;;;;;57.70;36.20;;;;;;;10.89;64.01;101178.42;106052;1319;22601;-62
2024/03/21 09:59:36;;;;;;;55.80;34.60;;;;;;;10.83;64.77;101171.39;105974;1312;24273;-61
2024/03/21 10:02:01;;;;;;;51.20;33.40;;;;;;;10.86;64.62;101170.86;106083;1313;22688;-62
2024/03/21 10:04:27;;;;;;;57.90;37.40;;;;;;;10.95;64.98;101165.92;106173;1300;22593;-61
2024/03/21 10:06:52;;;;;;;59.40;34.70;;;;;;;10.96;65.44;101168.67;106370;1313;22600;-62
2024/03/21 10:09:17;;;;;;;53.80;35.10;;;;;;;10.89;65.48;101167.73;106382;1313;22886;-61
2024/03/21 10:11:43;;;;;;;52.80;33.60;;;;;;;10.93;66.21;101164.22;106399;1316;22642;-61
2024/03/21 10:14:14;;;;;;;65.60;35.40;;;;;;;10.92;66.39;101162.50;106445;1302;22658;-61
2024/03/21 10:16:41;;;;;;;60.50;39.30;;;;;;;10.93;67.20;101161.64;106288;1319;22738;-59
2024/03/21 10:19:11;;;;;;;61.50;36.50;;;;;;;10.99;66.86;101162.60;105984;1319;22784;-62
2024/03/21 10:21:39;;;;;;;57.90;36.70;;;;;;;11.11;66.81;101159.73;106542;1319;22588;-62
2024/03/21 10:24:05;;;;;;;59.10;35.60;;;;;;;11.21;66.88;101156.71;106466;1300;22857;-62
2024/03/21 10:26:31;;;;;;;55.70;36.40;;;;;;;11.49;66.66;101157.27;106377;1319;22611;-61
2024/03/21 10:28:57;;;;;;;50.00;32.50;;;;;;;12.08;67.28;101148.77;106378;1312;22566;-61
2024/03/21 10:31:24;;;;;;;53.60;33.40;;;;;;;12.90;66.33;101151.28;106288;1312;24308;-61
2024/03/21 10:33:53;;;;;;;50.30;34.60;;;;;;;13.66;65.47;101142.58;106383;1303;22819;-62
2024/03/21 10:36:19;;;;;;;48.10;31.40;;;;;;;14.14;65.08;101142.58;106460;1319;22623;-61
2024/03/21 10:38:45;;;;;;;46.70;34.70;;;;;;;14.68;63.44;101140.63;106481;1312;22896;-62
2024/03/21 10:41:23;;;;;;;63.30;36.30;;;;;;;15.08;61.17;101139.09;106338;1321;22626;-60
2024/03/21 10:44:04;;;;;;;83.70;37.50;;;;;;;15.34;60.78;101139.77;105504;1300;22643;-59
2024/03/21 10:46:30;;;;;;;55.90;34.60;;;;;;;15.63;60.51;101139.66;105801;1306;25298;-61
2024/03/21 10:49:00;;;;;;;48.40;32.50;;;;;;;15.77;60.44;101139.07;105615;1313;24310;-59
2024/03/21 10:51:26;;;;;;;109.90;38.70;;;;;;;16.00;59.88;101135.27;105221;1319;24268;-60
2024/03/21 10:53:59;;;;;;;155.00;45.50;;;;;;;16.09;60.63;101136.54;102962;1297;25263;-62
2024/03/21 10:56:37;;;;;;;92.30;35.70;;;;;;;16.30;59.43;101132.59;102978;1311;22704;-62
2024/03/21 10:59:03;;;;;;;135.30;45.30;;;;;;;16.33;57.54;101129.88;102950;1319;25650;-62
2024/03/21 11:01:37;;;;;;;50.00;32.00;;;;;;;16.41;57.95;101128.94;102924;1316;25617;-62
2024/03/21 11:04:16;;;;;;;81.70;35.00;;;;;;;16.09;57.58;101129.41;103109;1300;23250;-62
2024/03/21 11:06:45;;;;;;;37.00;29.50;;;;;;;15.34;58.67;101129.34;102906;1319;22580;-62
2024/03/21 11:09:14;;;;;;;74.30;31.30;;;;;;;14.97;59.77;101128.80;102965;1312;22602;-62
2024/03/21 11:11:39;;;;;;;46.70;32.60;;;;;;;14.66;60.70;101124.02;102985;1313;23986;-62
2024/03/21 11:14:09;;;;;;;49.50;33.60;;;;;;;14.54;61.42;101115.12;102948;1319;22576;-62
2024/03/21 11:16:47;;;;;;;44.50;31.70;;;;;;;14.80;61.81;101110.84;102838;1319;22786;-62
2024/03/21 11:19:12;;;;;;;46.80;31.90;;;;;;;14.82;60.71;101112.33;102848;1316;22601;-62
2024/03/21 11:21:40;;;;;;;46.50;31.20;;;;;;;14.78;60.94;101110.34;102983;1319;22528;-62
2024/03/21 11:24:13;;;;;;;37.00;25.50;;;;;;;14.51;61.73;101111.73;102865;1298;22705;-62
2024/03/21 11:26:41;;;;;;;43.70;27.60;;;;;;;14.23;61.35;101113.06;103053;1314;22804;-62
2024/03/21 11:29:12;;;;;;;36.90;25.30;;;;;;;13.80;61.84;101113.35;102982;1319;22568;-63